Flight Track Log - Related Links

Times and Time Zones

All times are in EDT time to prevent confusion due to time zone crossing. See the N830QS flight status page for this flight to view local times or setup timezone preferences in your user account.

Time Position Orientation Groundspeed Altitude Reporting Facility
EDT Latitude Longitude Course Direction KTS MPH feet Rate Location/Type
Mon 12:09:41 PM 38.4650 -122.7111 82° East 264 304 4,000  Level Oakland Center
Mon 12:10:43 PM 38.4694 -122.6161 87° East 270 311 6,200 2,146 Climbing Oakland Center
Mon 12:11:44 PM 38.4653 -122.5144 93° East 281 323 8,400 2,262 Climbing Oakland Center
Mon 12:12:00 PM 38.6038 -122.0010 81° East  Level Estimated
Mon 12:12:45 PM 38.4636 -122.4067 91° East 298 343 10,800  Level Oakland Center
Mon 12:13:00 PM 38.6190 -121.8654 82° East  Level Estimated
Mon 12:13:47 PM 38.4617 -122.2967 91° East 307 353 13,200  Level Oakland Center
Mon 12:14:00 PM 38.6341 -121.7298 82° East  Level Estimated
Mon 12:14:48 PM 38.4589 -122.1867 92° East 310 357 15,500  Level Oakland Center
Mon 12:15:00 PM 38.6491 -121.5942 82° East  Level Estimated
Mon 12:15:50 PM 38.4567 -122.0719 91° East 321 369 17,600  Level Oakland Center
Mon 12:16:51 PM 38.4536 -121.9333 92° East 326 375 20,200 2,164 Climbing Oakland Center
Mon 12:17:52 PM 38.4503 -121.8158 92° East 332 382 22,000 1,366 Climbing Oakland Center
Mon 12:18:54 PM 38.4347 -121.6975 99° East 340 391 23,000 488 Climbing Oakland Center
Mon 12:19:55 PM 38.4089 -121.5842 106° East 335 386 23,000 197 Level Oakland Center
Mon 12:20:56 PM 38.3828 -121.4744 107° East 329 379 23,400 780 Climbing Oakland Center
Mon 12:21:58 PM 38.3647 -121.3553 101° East 362 417 24,600 1,171 Climbing Oakland Center
Mon 12:22:59 PM 38.3733 -121.2261 85° East 374 430 25,800 1,426 Climbing Oakland Center
Mon 12:24:00 PM 38.3844 -121.0681 85° East 379 436 27,500 1,659 Climbing Oakland Center
Mon 12:25:02 PM 38.3936 -120.9364 85° East 378 435 29,200 1,610 Climbing Oakland Center
Mon 12:26:03 PM 38.4039 -120.8078 84° East 371 427 30,800 1,415 Climbing Oakland Center
Mon 12:27:05 PM 38.4119 -120.6806 85° East 365 420 32,100 1,317 Climbing Oakland Center
Mon 12:28:06 PM 38.4206 -120.5489 85° East 370 426 33,500 1,525 Climbing Oakland Center
Mon 12:29:07 PM 38.4297 -120.4200 85° East 368 423 35,200 1,512 Climbing Oakland Center
Mon 12:30:09 PM 38.4381 -120.2950 85° East 358 412 36,600 1,122 Climbing Oakland Center
Mon 12:31:10 PM 38.4453 -120.1703 86° East 354 407 37,500 1,171 Climbing Oakland Center
Mon 12:32:12 PM 38.4561 -120.0153 85° East 364 419 39,000 1,268 Climbing Oakland Center
Mon 12:33:13 PM 38.4633 -119.8900 86° East 355 409 40,100 976 Climbing Oakland Center
Mon 12:34:15 PM 38.4719 -119.7658 85° East 350 403 41,000 439 Climbing Oakland Center
Mon 12:35:16 PM 38.4789 -119.6369 86° East 358 412 41,000  Level Oakland Center
Mon 12:37:05 PM 38.4931 -119.4014 86° East 371 427 41,000  Level Salt Lake Center
Mon 12:38:07 PM 38.5008 -119.2725 86° East 367 422 41,000  Level Salt Lake Center
Mon 12:39:09 PM 38.5075 -119.1464 86° East 359 413 41,000  Level Salt Lake Center
Mon 12:40:11 PM 38.5156 -118.9944 86° East 359 413 41,000  Level Salt Lake Center
Mon 12:41:25 PM 38.5247 -118.8431 86° East 357 411 41,000  Level Oakland Center
Mon 12:42:26 PM 38.5311 -118.7161 86° East 359 413 41,000  Level Oakland Center
Mon 12:43:27 PM 38.5372 -118.5903 86° East 357 411 41,000  Level Oakland Center
Mon 12:45:22 PM 38.5506 -118.3419 86° East 359 413 41,000  Level Salt Lake Center
Mon 12:46:32 PM 38.5564 -118.2094 87° East 361 415 41,000  Level Oakland Center
Mon 12:47:33 PM 38.5633 -118.0583 87° East 364 419 41,000  Level Oakland Center
Mon 12:48:34 PM 38.5744 -117.9319 84° East 358 412 41,000  Level Oakland Center
Mon 12:49:36 PM 38.5864 -117.8017 83° East 365 420 41,000  Level Oakland Center
Mon 12:51:39 PM 38.6100 -117.5453 83° East 361 415 41,000  Level Oakland Center
Mon 12:52:40 PM 38.6214 -117.4167 83° East 362 417 41,000  Level Oakland Center
Mon 12:53:38 PM 38.6333 -117.2864 83° East 365 420 41,000  Level Salt Lake Center
Mon 12:54:40 PM 38.6439 -117.1578 84° East 362 417 41,000  Level Salt Lake Center
Mon 12:55:45 PM 38.6533 -117.0325 84° East 355 409 41,000  Level Oakland Center
Mon 12:56:46 PM 38.6647 -116.9064 83° East 355 409 41,000  Level Oakland Center
Mon 12:57:47 PM 38.6750 -116.7803 84° East 354 407 41,000  Level Oakland Center
Mon 12:58:48 PM 38.6858 -116.6514 84° East 361 415 41,000  Level Salt Lake Center
Mon 12:59:50 PM 38.6981 -116.5006 84° East 356 410 41,000  Level Salt Lake Center
Mon 01:00:52 PM 38.7075 -116.3747 84° East 356 410 41,000  Level Salt Lake Center
Mon 01:01:54 PM 38.7175 -116.2478 84° East 357 411 41,000  Level Salt Lake Center
Mon 01:02:56 PM 38.7272 -116.1225 84° East 355 409 41,000  Level Salt Lake Center
Mon 01:03:58 PM 38.7361 -115.9967 85° East 353 406 41,000  Level Salt Lake Center
Mon 01:05:01 PM 38.7464 -115.8708 84° East 355 409 41,000  Level Salt Lake Center
Mon 01:06:03 PM 38.7553 -115.7447 85° East 357 411 41,000  Level Salt Lake Center
Mon 01:07:05 PM 38.7658 -115.5942 85° East 354 407 41,000  Level Salt Lake Center
Mon 01:08:07 PM 38.7756 -115.4681 84° East 355 409 41,000  Level Salt Lake Center
Mon 01:09:09 PM 38.7844 -115.3494 84° East 356 410 41,000  Level Salt Lake Center
Mon 01:10:11 PM 38.7911 -115.2244 86° East 353 406 41,000  Level Salt Lake Center
Mon 01:12:15 PM 38.8131 -114.9444 84° East 361 415 41,000  Level Salt Lake Center
Mon 01:13:17 PM 38.8211 -114.8192 85° East 355 409 41,000  Level Salt Lake Center
Mon 01:14:19 PM 38.8297 -114.6917 85° East 358 412 41,000  Level Salt Lake Center
Mon 01:16:00 PM 38.8429 -114.4711 86° East  Level FlightAware Approximate
Mon 01:18:27 PM 38.8633 -114.1547 86° East 360 414 41,000  Level Salt Lake Center
Mon 01:19:29 PM 38.8703 -114.0264 86° East 361 415 41,000  Level Salt Lake Center
Mon 01:21:33 PM 38.8847 -113.7683 86° East 363 418 41,000  Level Salt Lake Center
Mon 01:22:35 PM 38.8925 -113.6403 85° East 360 414 41,000  Level Salt Lake Center
Mon 01:23:00 PM 38.8932 -113.5528 86° East  Level FlightAware Approximate
Mon 01:23:37 PM 38.9011 -113.4872 86° East 359 413 41,000  Level Salt Lake Center
Mon 01:24:39 PM 38.9081 -113.3592 86° East 360 414 41,000  Level Salt Lake Center
Mon 01:25:41 PM 38.9147 -113.2333 86° East 355 409 41,000  Level Salt Lake Center
Mon 01:26:43 PM 38.9208 -113.1069 86° East 354 407 41,000  Level Salt Lake Center
Mon 01:27:46 PM 38.9275 -112.9778 86° East 360 414 41,000  Level Salt Lake Center
Mon 01:28:48 PM 38.9344 -112.8483 86° East 363 418 41,000  Level Salt Lake Center
Mon 01:29:50 PM 38.9403 -112.7197 87° East 362 417 41,000  Level Salt Lake Center
Mon 01:30:52 PM 38.9469 -112.5656 87° East 361 415 41,000  Level Salt Lake Center
Mon 01:31:54 PM 38.9539 -112.4372 86° East 360 414 41,000  Level Salt Lake Center
Mon 01:32:56 PM 38.9594 -112.3089 87° East 361 415 41,000  Level Salt Lake Center
Mon 01:33:58 PM 38.9650 -112.1803 87° East 360 414 41,000  Level Salt Lake Center
Mon 01:35:00 PM 38.9703 -112.0525 87° East 359 413 41,000  Level Salt Lake Center
Mon 01:36:02 PM 38.9758 -111.9233 87° East 360 414 41,000  Level Salt Lake Center
Mon 01:37:04 PM 38.9825 -111.7658 87° East 366 421 41,000  Level Salt Lake Center
Mon 01:38:06 PM 38.9869 -111.6347 87° East 367 422 41,000  Level Salt Lake Center
Mon 01:39:08 PM 38.9919 -111.5036 87° East 368 423 41,000  Level Salt Lake Center
Mon 01:40:10 PM 38.9967 -111.3722 87° East 368 423 41,000  Level Salt Lake Center
Mon 01:41:12 PM 39.0025 -111.2367 87° East 369 425 41,000  Level Salt Lake Center
Mon 01:42:14 PM 39.0047 -111.0878 89° East 372 428 41,000  Level Salt Lake Center
Mon 01:43:16 PM 39.0083 -110.9614 88° East 370 426 41,000  Level Salt Lake Center
Mon 01:44:18 PM 39.0139 -110.8144 87° East 371 427 41,000  Level Salt Lake Center
Mon 01:45:20 PM 39.0203 -110.6886 86° East 370 426 41,000  Level Salt Lake Center
Mon 01:46:22 PM 39.0317 -110.5422 84° East 369 425 41,000  Level Salt Lake Center
Mon 01:47:25 PM 39.0392 -110.4164 86° East 370 426 41,000  Level Salt Lake Center
Mon 01:48:26 PM 39.0483 -110.2892 85° East 372 428 41,000  Level Salt Lake Center
Mon 01:49:28 PM 39.0575 -110.1411 85° East 372 428 41,000  Level Salt Lake Center
Mon 01:50:30 PM 39.0658 -110.0136 85° East 374 430 41,000  Level Salt Lake Center
Mon 01:51:32 PM 39.0733 -109.8647 86° East 373 429 41,000  Level Salt Lake Center
Mon 01:52:34 PM 39.0814 -109.7369 85° East 375 432 41,000  Level Salt Lake Center
Mon 01:53:36 PM 39.0900 -109.5906 86° East 369 425 41,000  Level Salt Lake Center
Mon 01:54:48 PM 39.0975 -109.4414 86° East 368 423 41,000  Level Denver Center
Mon 01:56:00 PM 39.1118 -109.2610 84° East  Level FlightAware Approximate
Mon 01:56:42 PM 39.1119 -109.1947 84° East 365 420 41,000  Level Salt Lake Center
Mon 01:57:54 PM 39.1200 -109.0256 86° East 366 421 41,000  Level Denver Center
Mon 01:58:57 PM 39.1269 -108.9008 86° East 366 421 41,000  Level Denver Center
Mon 01:59:59 PM 39.1353 -108.7567 86° East 363 418 41,000  Level Denver Center
Mon 02:01:53 PM 39.1478 -108.5094 86° East 364 419 41,000  Level Salt Lake Center
Mon 02:02:55 PM 39.1539 -108.3883 86° East 357 411 41,000  Level Salt Lake Center
Mon 02:04:07 PM 39.1633 -108.2219 86° East 360 414 41,000  Level Denver Center
Mon 02:05:09 PM 39.1683 -108.0986 87° East 361 415 41,000  Level Denver Center
Mon 02:06:11 PM 39.1750 -107.9531 87° East 365 420 41,000  Level Denver Center
Mon 02:07:13 PM 39.1794 -107.8289 87° East 363 418 41,000  Level Denver Center
Mon 02:08:15 PM 39.1858 -107.6836 87° East 365 420 41,000  Level Denver Center
Mon 02:09:17 PM 39.1917 -107.5592 86° East 364 419 41,000  Level Denver Center
Mon 02:10:19 PM 39.1972 -107.4136 87° East 365 420 41,000  Level Denver Center
Mon 02:11:21 PM 39.2028 -107.2883 87° East 366 421 41,000  Level Denver Center
Mon 02:12:23 PM 39.2083 -107.1433 87° East 364 419 41,000  Level Denver Center
Mon 02:13:25 PM 39.2117 -107.0189 88° East 365 420 41,000  Level Denver Center
Mon 02:14:28 PM 39.2181 -106.8747 87° East 362 417 41,000  Level Denver Center
Mon 02:15:30 PM 39.2214 -106.7522 88° East 358 412 41,000  Level Denver Center
Mon 02:16:32 PM 39.2267 -106.6111 87° East 355 409 41,000  Level Denver Center
Mon 02:17:34 PM 39.2308 -106.4908 87° East 352 405 41,000  Level Denver Center
Mon 02:18:36 PM 39.2350 -106.3706 87° East 352 405 41,000  Level Denver Center
Mon 02:19:38 PM 39.2394 -106.2308 88° East 349 402 41,000  Level Denver Center
Mon 02:20:40 PM 39.2431 -106.1078 88° East 349 402 41,000  Level Denver Center
Mon 02:21:42 PM 39.2467 -105.9856 88° East 342 394 41,000  Level Denver Center
Mon 02:22:44 PM 39.2497 -105.8625 88° East 343 395 41,000  Level Denver Center
Mon 02:23:46 PM 39.2531 -105.7403 88° East 342 394 41,000  Level Denver Center
Mon 02:24:48 PM 39.2575 -105.5919 88° East 345 397 41,000  Level Denver Center
Mon 02:25:50 PM 39.2594 -105.4700 89° East 344 396 41,000  Level Denver Center
Mon 02:26:52 PM 39.2628 -105.3361 88° East 347 399 41,000  Level Denver Center
Mon 02:27:54 PM 39.2647 -105.2103 89° East 352 405 41,000  Level Denver Center
Mon 02:28:57 PM 39.2669 -105.0769 89° East 347 399 41,000  Level Denver Center
Mon 02:29:59 PM 39.2700 -104.9494 88° East 355 409 41,000  Level Denver Center
Mon 02:31:01 PM 39.2708 -104.8106 90° East 361 415 41,000  Level Denver Center
Mon 02:32:03 PM 39.2733 -104.6833 89° East 358 412 41,000  Level Denver Center
Mon 02:33:05 PM 39.2753 -104.5447 89° East 360 414 41,000  Level Denver Center
Mon 02:34:07 PM 39.2775 -104.4164 89° East 358 412 41,000  Level Denver Center
Mon 02:35:09 PM 39.2800 -104.2739 89° East 362 417 41,000  Level Denver Center
Mon 02:38:01 PM 39.2856 -103.9089 89° East 359 413 41,000  Level Kansas City Center
Mon 02:39:03 PM 39.2861 -103.7861 90° East 359 413 41,000  Level Kansas City Center
Mon 02:40:19 PM 39.2867 -103.6197 90° East 358 412 41,000  Level Denver Center
Mon 02:41:21 PM 39.2878 -103.4958 89° East 358 412 41,000  Level Denver Center
Mon 02:42:23 PM 39.2894 -103.3508 89° East 362 417 41,000  Level Denver Center
Mon 02:43:25 PM 39.2897 -103.2253 90° East 365 420 41,000  Level Denver Center
Mon 02:44:27 PM 39.2906 -103.0808 90° East 363 418 41,000  Level Denver Center
Mon 02:45:29 PM 39.2900 -102.9561 90° East 363 418 41,000  Level Denver Center
Mon 02:46:31 PM 39.2903 -102.8100 90° East 365 420 41,000  Level Denver Center
Mon 02:47:33 PM 39.2903 -102.6889 90° East 365 420 41,000  Level Denver Center
Mon 02:48:35 PM 39.2908 -102.5442 90° East 362 417 41,000  Level Denver Center
Mon 02:49:37 PM 39.2900 -102.4194 90° East 363 418 41,000  Level Denver Center
Mon 02:50:39 PM 39.2889 -102.2747 91° East 362 417 41,000  Level Denver Center
Mon 02:52:27 PM 39.2883 -102.0486 90° East 360 414 41,000  Level Kansas City Center
Mon 02:53:28 PM 39.2875 -101.9261 90° East 358 412 41,000  Level Kansas City Center
Mon 02:54:47 PM 39.2869 -101.7625 90° East 358 412 41,000  Level Denver Center
Mon 02:55:49 PM 39.2853 -101.6136 91° East 357 411 41,000  Level Denver Center
Mon 02:57:36 PM 39.2831 -101.3922 91° East 361 415 41,000  Level Kansas City Center
Mon 02:58:38 PM 39.2814 -101.2706 91° East 358 412 41,000  Level Kansas City Center
Mon 02:59:40 PM 39.2794 -101.1275 91° East 358 412 41,000  Level Kansas City Center
Mon 03:00:42 PM 39.2778 -101.0042 91° East 358 412 41,000  Level Kansas City Center
Mon 03:01:44 PM 39.2750 -100.8614 91° East 357 411 41,000  Level Kansas City Center
Mon 03:02:46 PM 39.2733 -100.7378 91° East 360 414 41,000  Level Kansas City Center
Mon 03:03:48 PM 39.2708 -100.5944 91° East 358 412 41,000  Level Kansas City Center
Mon 03:05:08 PM 39.2675 -100.4272 91° East 358 412 41,000  Level Denver Center
Mon 03:06:10 PM 39.2650 -100.3044 91° East 357 411 41,000  Level Denver Center
Mon 03:07:12 PM 39.2619 -100.1614 92° East 359 413 41,000  Level Denver Center
Mon 03:08:14 PM 39.2592 -100.0403 92° East 354 407 41,000  Level Denver Center
Mon 03:09:16 PM 39.2558 -99.8978 92° East 357 411 41,000  Level Denver Center
Mon 03:10:18 PM 39.2525 -99.7747 92° East 359 413 41,000  Level Denver Center
Mon 03:11:20 PM 39.2492 -99.6322 92° East 357 411 41,000  Level Denver Center
Mon 03:12:22 PM 39.2450 -99.5094 92° East 359 413 41,000  Level Denver Center
Mon 03:13:24 PM 39.2425 -99.3675 91° East 357 411 41,000  Level Denver Center
Mon 03:14:26 PM 39.2381 -99.2467 93° East 355 409 41,000  Level Denver Center
Mon 03:15:28 PM 39.2339 -99.1067 92° East 352 405 41,000  Level Denver Center
Mon 03:16:30 PM 39.2300 -98.9844 92° East 354 407 41,000  Level Denver Center
Mon 03:17:13 PM 39.2264 -98.8911 93° East 346 398 41,000  Level Kansas City Center
Mon 03:18:15 PM 39.2233 -98.7747 92° East 343 395 41,000  Level Kansas City Center
Mon 03:19:16 PM 39.2183 -98.6375 93° East 342 394 41,000  Level Kansas City Center
Mon 03:20:18 PM 39.2147 -98.5242 92° East 342 394 41,000  Level Kansas City Center
Mon 03:21:20 PM 39.2103 -98.4022 93° East 339 390 41,000  Level Kansas City Center
Mon 03:22:22 PM 39.2050 -98.2817 93° East 337 388 41,000  Level Kansas City Center
Mon 03:23:24 PM 39.1997 -98.1364 93° East 338 389 41,000  Level Kansas City Center
Mon 03:24:26 PM 39.1944 -98.0128 93° East 342 394 41,000  Level Kansas City Center
Mon 03:25:28 PM 39.1894 -97.8864 93° East 347 399 41,000  Level Kansas City Center
Mon 03:26:30 PM 39.1850 -97.7547 92° East 354 407 41,000  Level Kansas City Center
Mon 03:27:32 PM 39.1792 -97.6325 93° East 357 411 41,000  Level Kansas City Center
Mon 03:28:34 PM 39.1731 -97.4903 93° East 357 411 41,000  Level Kansas City Center
Mon 03:29:36 PM 39.1675 -97.3681 93° East 356 410 41,000  Level Kansas City Center
Mon 03:30:38 PM 39.1606 -97.2250 94° East 358 412 41,000  Level Kansas City Center
Mon 03:31:40 PM 39.1539 -97.1033 94° East 357 411 41,000  Level Kansas City Center
Mon 03:32:42 PM 39.1478 -96.9606 93° East 358 412 41,000  Level Kansas City Center
Mon 03:33:44 PM 39.1419 -96.8389 93° East 357 411 41,000  Level Kansas City Center
Mon 03:34:46 PM 39.1344 -96.6992 94° East 353 406 41,000  Level Kansas City Center
Mon 03:35:48 PM 39.1283 -96.5797 94° East 350 403 41,000  Level Kansas City Center
Mon 03:36:50 PM 39.1203 -96.4400 94° East 351 404 41,000  Level Kansas City Center
Mon 03:37:52 PM 39.1133 -96.3203 94° East 350 403 41,000  Level Kansas City Center
Mon 03:38:54 PM 39.1064 -96.2011 94° East 349 402 41,000  Level Kansas City Center
Mon 03:39:56 PM 39.0986 -96.0631 94° East 347 399 41,000  Level Kansas City Center
Mon 03:40:58 PM 39.0919 -95.9436 94° East 350 403 41,000  Level Kansas City Center
Mon 03:41:00 PM 39.0919 -95.9308 94° East  Level FlightAware Approximate
Mon 03:41:59 PM 39.0839 -95.8050 94° East 349 402 41,000  Level Kansas City Center
Mon 03:43:01 PM 39.0772 -95.6844 94° East 351 404 41,000  Level Kansas City Center
Mon 03:44:03 PM 39.0686 -95.5436 94° East 351 404 41,000  Level Kansas City Center
Mon 03:45:05 PM 39.0600 -95.4083 95° East 353 406 41,000  Level Kansas City Center
Mon 03:46:07 PM 39.0522 -95.2825 95° East 355 409 41,000  Level Kansas City Center
Mon 03:48:11 PM 39.0350 -95.0283 95° East 354 407 41,000  Level Kansas City Center
Mon 03:49:13 PM 39.0269 -94.9097 95° East 351 404 41,000  Level Kansas City Center
Mon 03:50:14 PM 39.0172 -94.7706 95° East 352 405 41,000  Level Kansas City Center
Mon 03:51:16 PM 39.0092 -94.6511 95° East 351 404 41,000  Level Kansas City Center
Mon 03:52:18 PM 39.0000 -94.5114 95° East 352 405 41,000  Level Kansas City Center
Mon 03:53:20 PM 38.9911 -94.3936 96° East 347 399 41,000  Level Kansas City Center
Mon 03:54:22 PM 38.9808 -94.2536 95° East 351 404 41,000  Level Kansas City Center
Mon 03:55:24 PM 38.9719 -94.1339 95° East 351 404 41,000  Level Kansas City Center
Mon 03:56:26 PM 38.9614 -93.9939 95° East 353 406 41,000  Level Kansas City Center
Mon 03:57:28 PM 38.9519 -93.8742 96° East 353 406 41,000  Level Kansas City Center
Mon 03:59:00 PM 38.9376 -93.6850 97° East  Level FlightAware Approximate
Mon 03:59:31 PM 38.9344 -93.6164 97° East 353 406 41,000  Level Kansas City Center
Mon 04:00:33 PM 38.9214 -93.4897 98° East 356 410 39,700 -1,452 Descending Kansas City Center
Mon 04:01:35 PM 38.9131 -93.3525 94° East 369 425 38,000 -1,306 Descending Kansas City Center
Mon 04:02:37 PM 38.9017 -93.2192 96° East 375 432 37,000 -1,403 Descending Kansas City Center
Mon 04:03:39 PM 38.8892 -93.0667 96° East 362 417 35,100 -1,694 Descending Kansas City Center
Mon 04:04:41 PM 38.8781 -92.9458 97° East 352 405 33,500 -1,548 Descending Kansas City Center
Mon 04:05:43 PM 38.8681 -92.8261 96° East 344 396 31,900 -1,548 Descending Kansas City Center
Mon 04:06:45 PM 38.8589 -92.7083 96° East 336 387 30,300 -1,548 Descending Kansas City Center
Mon 04:07:47 PM 38.8492 -92.5964 96° East 325 374 28,700 -1,548 Descending Kansas City Center
Mon 04:08:49 PM 38.8389 -92.4867 97° East 315 362 27,100 -1,610 Descending Kansas City Center
Mon 04:09:50 PM 38.8289 -92.3689 96° East 321 369 25,400 -1,707 Descending Kansas City Center
Mon 04:10:52 PM 38.8183 -92.2514 97° East 329 379 23,600 -2,081 Descending Kansas City Center
Mon 04:11:54 PM 38.8050 -92.1097 97° East 331 381 21,100 -2,177 Descending Kansas City Center
Mon 04:12:56 PM 38.7942 -91.9933 97° East 329 379 19,100 -1,887 Descending Kansas City Center
Mon 04:13:58 PM 38.7833 -91.8803 97° East 322 371 17,200 -1,935 Descending Kansas City Center
Mon 04:15:00 PM 38.7725 -91.7700 97° East 314 361 15,100 -2,032 Descending Kansas City Center
Mon 04:16:02 PM 38.7642 -91.6775 97° East 301 346 13,000 -2,274 Descending Kansas City Center
Mon 04:17:04 PM 38.7525 -91.5589 97° East 284 327 10,400 -2,323 Descending Kansas City Center
Mon 04:18:06 PM 38.7439 -91.4608 96° East 280 322 8,200 -1,935 Descending Kansas City Center
Mon 04:19:08 PM 38.7336 -91.3692 98° East 266 306 6,400 -1,548 Descending Kansas City Center
Mon 04:20:10 PM 38.7250 -91.2767 97° East 263 303 5,000 -677 Descending Kansas City Center
Mon 04:21:12 PM 38.7156 -91.1833 97° East 264 304 5,000 -290 Level Kansas City Center
Mon 04:22:14 PM 38.7072 -91.0933 97° East 258 297 4,400 -484 Descending Kansas City Center
Mon 04:23:16 PM 38.6978 -90.9992 97° East 220 253 4,000 -484 Descending Kansas City Center
Mon 04:24:18 PM 38.6911 -90.9278 97° East 203 234 3,400 -581 Descending Kansas City Center
Mon 04:25:20 PM 38.6717 -90.8644 111° Southeast 196 226 2,800 -387 Descending Kansas City Center
Mon 04:26:22 PM 38.6494 -90.8083 117° Southeast 186 214 2,600 -435 Descending Kansas City Center
Mon 04:27:24 PM 38.6400 -90.7575 103° East 173 199 1,900 -677 Descending Kansas City Center
Mon 04:28:26 PM 38.6492 -90.7111 76° East 130 150 1,200 -629 Descending Kansas City Center
Mon 04:29:28 PM 38.6556 -90.6719 78° East 118 136 600 -387 Descending Kansas City Center
Mon 04:30:30 PM 38.6617 -90.6353 78° East 116 133 400 -194 Descending Kansas City Center

Login

Don't have an account? Register now (free) for customized features, flight alerts, and more!